Kars, Turkey
Current Conditions -  °F | °C
As of 11:50 AM on Friday 28 Nov 2014 (Local Time) from LTCF Reporting Station
Broken Clouds Broken Clouds  
Wind Chill: 30°   Ceiling: 7000
Heat Index: 30°   Visibility: 6mi
Dew Point: 28°   Wind: 0mph
Humidity: 93%   Direction: NA
Pressure: 30.15"   Gusts: NA
Location:  40.59°N, 43.07°E
Report Text: LTCF 280850Z 00000KT 9999 SCT035 BKN070 M01/M02 Q1021
Loading
Personal Weather Stations






























Interactive Weather Map New forecast layout! Learn more

10-Day Weather Forecast

Advertisements
Track Severe Weather on mobile